Time,TemperatureF,DewpointF,PressureIn,WindDirection,WindDirectionDegrees,WindSpeedMPH,WindSpeedGustMPH,Humidity,HourlyPrecipIn,Conditions,Clouds,dailyrainin,SolarRadiationWatts/m^2,SoftwareType,DateUTC
2013-06-16 00:02:00,57.0,57.0,-100.00,SW,234,0.0,2.0,99,0.00,,,0.64,0.000000,,2013-06-16 04:02:00,
2013-06-16 00:10:00,55.0,55.0,-100.00,NW,314,0.0,2.0,99,0.00,,,0.64,0.000000,,2013-06-16 04:10:00,
2013-06-16 00:34:00,55.0,55.0,-100.00,NW,314,0.0,2.0,99,0.00,,,0.64,0.000000,,2013-06-16 04:34:00,
2013-06-16 00:43:00,55.0,55.0,-100.00,NW,314,0.0,2.0,99,0.00,,,0.64,0.000000,,2013-06-16 04:43:00,
2013-06-16 00:53:00,55.0,55.0,-100.00,NW,314,0.0,2.0,99,0.00,,,0.64,0.000000,,2013-06-16 04:53:00,
2013-06-16 01:01:00,55.0,55.0,-100.00,NW,314,0.0,2.0,99,0.00,,,0.64,0.000000,,2013-06-16 05:01:00,
2013-06-16 01:10:00,57.0,57.0,-100.00,SSW,200,1.0,5.0,100,0.00,,,0.64,0.000000,,2013-06-16 05:10:00,
2013-06-16 01:34:00,57.0,57.0,-100.00,SSW,200,1.0,5.0,100,0.00,,,0.64,0.000000,,2013-06-16 05:34:00,
2013-06-16 01:43:00,57.0,57.0,-100.00,SSW,200,1.0,5.0,100,0.00,,,0.64,0.000000,,2013-06-16 05:43:00,
2013-06-16 01:52:00,57.0,57.0,-100.00,SSW,200,1.0,5.0,100,0.00,,,0.64,0.000000,,2013-06-16 05:52:00,
2013-06-16 02:01:00,57.0,57.0,-100.00,SSW,200,1.0,5.0,100,0.00,,,0.64,0.000000,,2013-06-16 06:01:00,
2013-06-16 02:10:00,58.0,58.0,-100.00,SW,231,1.0,6.0,100,0.00,,,0.64,0.000000,,2013-06-16 06:10:00,
2013-06-16 02:33:00,58.0,58.0,-100.00,SW,231,1.0,6.0,100,0.00,,,0.64,0.000000,,2013-06-16 06:33:00,
2013-06-16 02:43:00,58.0,58.0,-100.00,SW,231,1.0,6.0,100,0.00,,,0.64,0.000000,,2013-06-16 06:43:00,
2013-06-16 02:52:00,58.0,58.0,-100.00,SW,231,1.0,6.0,100,0.00,,,0.64,0.000000,,2013-06-16 06:52:00,
2013-06-16 03:01:00,58.0,58.0,-100.00,SW,231,1.0,6.0,100,0.00,,,0.64,0.000000,,2013-06-16 07:01:00,
2013-06-16 03:10:00,59.0,59.0,-100.00,West,278,1.0,7.0,100,0.00,,,0.64,0.000000,,2013-06-16 07:10:00,
2013-06-16 03:33:00,59.0,59.0,-100.00,West,278,1.0,7.0,100,0.00,,,0.64,0.000000,,2013-06-16 07:33:00,
2013-06-16 03:43:00,59.0,59.0,-100.00,West,278,1.0,7.0,100,0.00,,,0.64,0.000000,,2013-06-16 07:43:00,
2013-06-16 03:53:00,59.0,59.0,-100.00,West,278,1.0,7.0,100,0.00,,,0.64,0.000000,,2013-06-16 07:53:00,
2013-06-16 04:02:00,59.0,59.0,-100.00,West,278,1.0,7.0,100,0.00,,,0.64,0.000000,,2013-06-16 08:02:00,
2013-06-16 04:10:00,59.0,59.0,-100.00,West,262,3.0,8.0,100,0.00,,,0.64,0.000000,,2013-06-16 08:10:00,
2013-06-16 04:34:00,59.0,59.0,-100.00,West,262,3.0,8.0,100,0.00,,,0.64,0.000000,,2013-06-16 08:34:00,
2013-06-16 04:43:00,59.0,59.0,-100.00,West,262,3.0,8.0,100,0.00,,,0.64,0.000000,,2013-06-16 08:43:00,
2013-06-16 04:54:00,59.0,59.0,-100.00,West,262,3.0,8.0,100,0.00,,,0.64,0.000000,,2013-06-16 08:54:00,
2013-06-16 05:02:00,59.0,59.0,-100.00,West,262,3.0,8.0,100,0.00,,,0.64,0.000000,,2013-06-16 09:02:00,
2013-06-16 05:10:00,58.0,58.0,-100.00,West,262,0.0,7.0,99,0.00,,,0.64,0.000000,,2013-06-16 09:10:00,
2013-06-16 05:33:00,58.0,58.0,-100.00,West,262,0.0,7.0,99,0.00,,,0.64,0.000000,,2013-06-16 09:33:00,
2013-06-16 05:43:00,58.0,58.0,-100.00,West,262,0.0,7.0,99,0.00,,,0.64,0.000000,,2013-06-16 09:43:00,
2013-06-16 05:52:00,58.0,58.0,-100.00,West,262,0.0,7.0,99,0.00,,,0.64,0.000000,,2013-06-16 09:52:00,
2013-06-16 06:02:00,58.0,58.0,-100.00,West,262,0.0,7.0,99,0.00,,,0.64,0.000000,,2013-06-16 10:02:00,
2013-06-16 06:10:00,55.0,55.0,-100.00,SW,229,0.0,3.0,99,0.00,,,0.64,1.000000,,2013-06-16 10:10:00,
2013-06-16 06:33:00,55.0,55.0,-100.00,SW,229,0.0,3.0,99,0.00,,,0.64,1.000000,,2013-06-16 10:33:00,
2013-06-16 06:43:00,55.0,55.0,-100.00,SW,229,0.0,3.0,99,0.00,,,0.64,1.000000,,2013-06-16 10:43:00,
2013-06-16 06:54:00,55.0,55.0,-100.00,SW,229,0.0,3.0,99,0.00,,,0.64,1.000000,,2013-06-16 10:54:00,
2013-06-16 07:02:00,55.0,55.0,-100.00,SW,229,0.0,3.0,99,0.00,,,0.64,1.000000,,2013-06-16 11:02:00,
2013-06-16 07:10:00,56.0,56.0,-100.00,SW,233,0.0,4.0,100,0.00,,,0.64,11.000000,,2013-06-16 11:10:00,
2013-06-16 07:34:00,56.0,56.0,-100.00,SW,233,0.0,4.0,100,0.00,,,0.64,11.000000,,2013-06-16 11:34:00,
2013-06-16 07:43:00,56.0,56.0,-100.00,SW,233,0.0,4.0,100,0.00,,,0.64,11.000000,,2013-06-16 11:43:00,
2013-06-16 07:53:00,56.0,56.0,-100.00,SW,233,0.0,4.0,100,0.00,,,0.64,11.000000,,2013-06-16 11:53:00,
2013-06-16 08:02:00,56.0,56.0,-100.00,SW,233,0.0,4.0,100,0.00,,,0.64,11.000000,,2013-06-16 12:02:00,
2013-06-16 08:10:00,59.0,57.0,-100.00,WNW,294,1.0,4.0,94,0.00,,,0.64,23.000000,,2013-06-16 12:10:00,
2013-06-16 08:33:00,59.0,57.0,-100.00,WNW,294,1.0,4.0,94,0.00,,,0.64,23.000000,,2013-06-16 12:33:00,
2013-06-16 08:43:00,59.0,57.0,-100.00,WNW,294,1.0,4.0,94,0.00,,,0.64,23.000000,,2013-06-16 12:43:00,
2013-06-16 08:53:00,59.0,57.0,-100.00,WNW,294,1.0,4.0,94,0.00,,,0.64,23.000000,,2013-06-16 12:53:00,
2013-06-16 09:01:00,59.0,57.0,-100.00,WNW,294,1.0,4.0,94,0.00,,,0.64,23.000000,,2013-06-16 13:01:00,
2013-06-16 09:10:00,62.0,57.0,-100.00,WNW,300,2.0,8.0,85,0.00,,,0.64,27.000000,,2013-06-16 13:10:00,
2013-06-16 09:34:00,62.0,57.0,-100.00,WNW,300,2.0,8.0,85,0.00,,,0.64,27.000000,,2013-06-16 13:34:00,
2013-06-16 09:43:00,62.0,57.0,-100.00,WNW,300,2.0,8.0,85,0.00,,,0.64,27.000000,,2013-06-16 13:43:00,
2013-06-16 09:54:00,62.0,57.0,-100.00,WNW,300,2.0,8.0,85,0.00,,,0.64,27.000000,,2013-06-16 13:54:00,
2013-06-16 10:02:00,62.0,57.0,-100.00,WNW,300,2.0,8.0,85,0.00,,,0.64,27.000000,,2013-06-16 14:02:00,
2013-06-16 10:10:00,67.0,56.0,-100.00,NW,313,3.0,8.0,69,0.00,,,0.60,228.000000,,2013-06-16 14:10:00,
2013-06-16 10:34:00,67.0,56.0,-100.00,NW,313,3.0,8.0,69,0.00,,,0.60,228.000000,,2013-06-16 14:34:00,
2013-06-16 10:44:00,67.0,56.0,-100.00,NW,313,3.0,8.0,69,0.00,,,0.60,228.000000,,2013-06-16 14:44:00,
2013-06-16 10:53:00,67.0,56.0,-100.00,NW,313,3.0,8.0,69,0.00,,,0.60,228.000000,,2013-06-16 14:53:00,
2013-06-16 11:02:00,67.0,56.0,-100.00,NW,313,3.0,8.0,69,0.00,,,0.60,228.000000,,2013-06-16 15:02:00,
2013-06-16 11:10:00,71.0,54.0,-100.00,NNW,337,6.0,12.0,56,0.00,,,0.54,629.000000,,2013-06-16 15:10:00,
2013-06-16 11:34:00,71.0,54.0,-100.00,NNW,337,6.0,12.0,56,0.00,,,0.54,629.000000,,2013-06-16 15:34:00,
2013-06-16 11:43:00,71.0,54.0,-100.00,NNW,337,6.0,12.0,56,0.00,,,0.54,629.000000,,2013-06-16 15:43:00,
2013-06-16 11:53:00,71.0,54.0,-100.00,NNW,337,6.0,12.0,56,0.00,,,0.54,629.000000,,2013-06-16 15:53:00,
2013-06-16 12:02:00,71.0,54.0,-100.00,NNW,337,6.0,12.0,56,0.00,,,0.54,629.000000,,2013-06-16 16:02:00,
2013-06-16 12:10:00,74.0,52.0,-100.00,NNW,341,7.0,15.0,47,0.00,,,0.53,735.000000,,2013-06-16 16:10:00,
2013-06-16 12:33:00,74.0,52.0,-100.00,NNW,341,7.0,15.0,47,0.00,,,0.53,735.000000,,2013-06-16 16:33:00,
2013-06-16 12:43:00,74.0,52.0,-100.00,NNW,341,7.0,15.0,47,0.00,,,0.53,735.000000,,2013-06-16 16:43:00,
2013-06-16 12:53:00,74.0,52.0,-100.00,NNW,341,7.0,15.0,47,0.00,,,0.53,735.000000,,2013-06-16 16:53:00,
2013-06-16 13:02:00,74.0,52.0,-100.00,NNW,341,7.0,15.0,47,0.00,,,0.53,735.000000,,2013-06-16 17:02:00,
2013-06-16 13:10:00,75.0,50.0,-100.00,NNW,331,7.0,17.0,41,0.00,,,0.53,769.000000,,2013-06-16 17:10:00,
2013-06-16 13:34:00,75.0,50.0,-100.00,NNW,331,7.0,17.0,41,0.00,,,0.53,769.000000,,2013-06-16 17:34:00,
2013-06-16 13:43:00,75.0,50.0,-100.00,NNW,331,7.0,17.0,41,0.00,,,0.53,769.000000,,2013-06-16 17:43:00,
2013-06-16 13:53:00,75.0,50.0,-100.00,NNW,331,7.0,17.0,41,0.00,,,0.53,769.000000,,2013-06-16 17:53:00,
2013-06-16 14:02:00,75.0,50.0,-100.00,NNW,331,7.0,17.0,41,0.00,,,0.53,769.000000,,2013-06-16 18:02:00,
2013-06-16 14:10:00,76.0,47.0,-100.00,NNW,343,9.0,18.0,36,0.00,,,0.53,589.000000,,2013-06-16 18:10:00,
2013-06-16 14:34:00,76.0,47.0,-100.00,NNW,343,9.0,18.0,36,0.00,,,0.53,589.000000,,2013-06-16 18:34:00,
2013-06-16 14:43:00,76.0,47.0,-100.00,NNW,343,9.0,18.0,36,0.00,,,0.53,589.000000,,2013-06-16 18:43:00,
2013-06-16 14:52:00,76.0,47.0,-100.00,NNW,343,9.0,18.0,36,0.00,,,0.53,589.000000,,2013-06-16 18:52:00,
2013-06-16 15:01:00,76.0,47.0,-100.00,NNW,343,9.0,18.0,36,0.00,,,0.53,589.000000,,2013-06-16 19:01:00,
2013-06-16 15:10:00,77.0,46.0,-100.00,NNW,327,7.0,20.0,34,0.00,,,0.53,569.000000,,2013-06-16 19:10:00,
2013-06-16 15:34:00,77.0,46.0,-100.00,NNW,327,7.0,20.0,34,0.00,,,0.53,569.000000,,2013-06-16 19:34:00,
2013-06-16 15:43:00,77.0,46.0,-100.00,NNW,327,7.0,20.0,34,0.00,,,0.53,569.000000,,2013-06-16 19:43:00,
2013-06-16 15:53:00,77.0,46.0,-100.00,NNW,327,7.0,20.0,34,0.00,,,0.53,569.000000,,2013-06-16 19:53:00,
2013-06-16 16:02:00,77.0,46.0,-100.00,NNW,327,7.0,20.0,34,0.00,,,0.53,569.000000,,2013-06-16 20:02:00,
2013-06-16 16:10:00,79.0,46.0,-100.00,NNW,331,7.0,19.0,31,0.00,,,0.53,723.000000,,2013-06-16 20:10:00,
2013-06-16 16:33:00,79.0,46.0,-100.00,NNW,331,7.0,19.0,31,0.00,,,0.53,723.000000,,2013-06-16 20:33:00,
2013-06-16 16:43:00,79.0,46.0,-100.00,NNW,331,7.0,19.0,31,0.00,,,0.53,723.000000,,2013-06-16 20:43:00,
2013-06-16 16:53:00,79.0,46.0,-100.00,NNW,331,7.0,19.0,31,0.00,,,0.53,723.000000,,2013-06-16 20:53:00,
2013-06-16 17:02:00,79.0,46.0,-100.00,NNW,331,7.0,19.0,31,0.00,,,0.53,723.000000,,2013-06-16 21:02:00,
2013-06-16 17:10:00,70.0,47.0,-100.00,NNW,330,5.0,22.0,44,0.01,,,0.54,164.000000,,2013-06-16 21:10:00,
2013-06-16 17:33:00,70.0,47.0,-100.00,NNW,330,5.0,22.0,44,0.01,,,0.54,164.000000,,2013-06-16 21:33:00,
2013-06-16 17:42:00,70.0,47.0,-100.00,NNW,330,5.0,22.0,44,0.01,,,0.54,164.000000,,2013-06-16 21:42:00,
2013-06-16 17:53:00,70.0,47.0,-100.00,NNW,330,5.0,22.0,44,0.01,,,0.54,164.000000,,2013-06-16 21:53:00,
2013-06-16 18:01:00,70.0,47.0,-100.00,NNW,330,5.0,22.0,44,0.01,,,0.54,164.000000,,2013-06-16 22:01:00,
2013-06-16 18:10:00,75.0,51.0,-100.00,WNW,297,2.0,9.0,43,0.00,,,0.54,411.000000,,2013-06-16 22:10:00,
2013-06-16 18:32:00,75.0,51.0,-100.00,WNW,297,2.0,9.0,43,0.00,,,0.54,411.000000,,2013-06-16 22:32:00,
2013-06-16 18:42:00,75.0,51.0,-100.00,WNW,297,2.0,9.0,43,0.00,,,0.54,411.000000,,2013-06-16 22:42:00,
2013-06-16 18:52:00,75.0,51.0,-100.00,WNW,297,2.0,9.0,43,0.00,,,0.54,411.000000,,2013-06-16 22:52:00,
2013-06-16 19:01:00,75.0,51.0,-100.00,WNW,297,2.0,9.0,43,0.00,,,0.54,411.000000,,2013-06-16 23:01:00,
2013-06-16 19:10:00,75.0,52.0,-100.00,WNW,302,2.0,6.0,44,0.00,,,0.53,298.000000,,2013-06-16 23:10:00,
2013-06-16 19:32:00,75.0,52.0,-100.00,WNW,302,2.0,6.0,44,0.00,,,0.53,298.000000,,2013-06-16 23:32:00,
2013-06-16 19:42:00,75.0,52.0,-100.00,WNW,302,2.0,6.0,44,0.00,,,0.53,298.000000,,2013-06-16 23:42:00,
2013-06-16 19:52:00,75.0,52.0,-100.00,WNW,302,2.0,6.0,44,0.00,,,0.53,298.000000,,2013-06-16 23:52:00,
2013-06-16 20:02:00,75.0,52.0,-100.00,WNW,302,2.0,6.0,44,0.00,,,0.53,298.000000,,2013-06-17 00:02:00,
2013-06-16 21:10:00,58.0,54.0,-100.00,North,355,6.0,20.0,88,-99.99,,,0.12,9.000000,,2013-06-17 01:10:00,
2013-06-16 21:32:00,58.0,54.0,-100.00,North,355,6.0,20.0,88,-99.99,,,0.12,9.000000,,2013-06-17 01:32:00,
2013-06-16 21:43:00,58.0,54.0,-100.00,North,355,6.0,20.0,88,-99.99,,,0.12,9.000000,,2013-06-17 01:43:00,
2013-06-16 21:53:00,58.0,54.0,-100.00,North,355,6.0,20.0,88,-99.99,,,0.12,9.000000,,2013-06-17 01:53:00,
2013-06-16 22:02:00,58.0,54.0,-100.00,North,355,6.0,20.0,88,-99.99,,,0.12,9.000000,,2013-06-17 02:02:00,
2013-06-16 22:10:00,57.0,56.0,-100.00,SSW,200,0.0,6.0,98,0.01,,,0.13,7.000000,,2013-06-17 02:10:00,
2013-06-16 22:34:00,57.0,56.0,-100.00,SSW,200,0.0,6.0,98,0.01,,,0.13,7.000000,,2013-06-17 02:34:00,
2013-06-16 22:43:00,57.0,56.0,-100.00,SSW,200,0.0,6.0,98,0.01,,,0.13,7.000000,,2013-06-17 02:43:00,
2013-06-16 22:53:00,57.0,56.0,-100.00,SSW,200,0.0,6.0,98,0.01,,,0.13,7.000000,,2013-06-17 02:53:00,
2013-06-16 23:02:00,57.0,56.0,-100.00,SSW,200,0.0,6.0,98,0.01,,,0.13,7.000000,,2013-06-17 03:02:00,
2013-06-16 23:10:00,56.0,55.0,-100.00,SE,145,0.0,10.0,98,0.03,,,0.16,0.000000,,2013-06-17 03:10:00,
2013-06-16 23:33:00,56.0,55.0,-100.00,SE,145,0.0,10.0,98,0.03,,,0.16,0.000000,,2013-06-17 03:33:00,
2013-06-16 23:44:00,56.0,55.0,-100.00,SE,145,0.0,10.0,98,0.03,,,0.16,0.000000,,2013-06-17 03:44:00,
2013-06-16 23:54:00,56.0,55.0,-100.00,SE,145,0.0,10.0,98,0.03,,,0.16,0.000000,,2013-06-17 03:54:00,